sensor_id;sensor_type;location;lat;lon;timestamp;P1;durP1;ratioP1;P2;durP2;ratioP2
13202;SDS011;6666;51.626;7.530;2023-06-04T00:00:01;5.20;;;1.30;;
13202;SDS011;6666;51.626;7.530;2023-06-04T00:02:31;3.40;;;1.20;;
13202;SDS011;6666;51.626;7.530;2023-06-04T00:04:59;1.73;;;1.30;;
13202;SDS011;6666;51.626;7.530;2023-06-04T00:07:28;3.60;;;1.50;;
13202;SDS011;6666;51.626;7.530;2023-06-04T00:09:57;1.90;;;1.10;;
13202;SDS011;6666;51.626;7.530;2023-06-04T00:12:25;7.65;;;1.33;;
13202;SDS011;6666;51.626;7.530;2023-06-04T00:14:53;3.80;;;1.42;;
13202;SDS011;6666;51.626;7.530;2023-06-04T00:17:22;5.25;;;1.48;;
13202;SDS011;6666;51.626;7.530;2023-06-04T00:19:50;1.38;;;1.00;;
13202;SDS011;6666;51.626;7.530;2023-06-04T00:22:18;2.15;;;1.30;;
13202;SDS011;6666;51.626;7.530;2023-06-04T00:24:46;1.90;;;1.20;;
13202;SDS011;6666;51.626;7.530;2023-06-04T00:27:15;2.60;;;1.45;;
13202;SDS011;6666;51.626;7.530;2023-06-04T00:29:44;3.03;;;1.65;;
13202;SDS011;6666;51.626;7.530;2023-06-04T00:32:12;3.60;;;1.27;;
13202;SDS011;6666;51.626;7.530;2023-06-04T00:34:40;2.85;;;1.20;;
13202;SDS011;6666;51.626;7.530;2023-06-04T00:37:08;2.65;;;1.00;;
13202;SDS011;6666;51.626;7.530;2023-06-04T00:39:36;1.90;;;1.20;;
13202;SDS011;6666;51.626;7.530;2023-06-04T00:42:05;1.80;;;1.10;;
13202;SDS011;6666;51.626;7.530;2023-06-04T00:44:34;2.70;;;1.80;;
13202;SDS011;6666;51.626;7.530;2023-06-04T00:47:03;5.68;;;1.30;;
13202;SDS011;6666;51.626;7.530;2023-06-04T00:49:32;3.03;;;1.23;;
13202;SDS011;6666;51.626;7.530;2023-06-04T00:52:00;2.85;;;1.23;;
13202;SDS011;6666;51.626;7.530;2023-06-04T00:54:28;3.40;;;1.17;;
13202;SDS011;6666;51.626;7.530;2023-06-04T00:56:59;4.80;;;1.60;;
13202;SDS011;6666;51.626;7.530;2023-06-04T00:59:27;2.50;;;1.30;;
13202;SDS011;6666;51.626;7.530;2023-06-04T01:01:59;1.40;;;1.10;;
13202;SDS011;6666;51.626;7.530;2023-06-04T01:04:30;2.83;;;1.10;;
13202;SDS011;6666;51.626;7.530;2023-06-04T01:07:03;2.50;;;1.45;;
13202;SDS011;6666;51.626;7.530;2023-06-04T01:09:34;3.10;;;1.20;;
13202;SDS011;6666;51.626;7.530;2023-06-04T01:12:04;1.80;;;1.00;;
13202;SDS011;6666;51.626;7.530;2023-06-04T01:14:33;3.95;;;1.00;;
13202;SDS011;6666;51.626;7.530;2023-06-04T01:17:05;3.20;;;1.30;;
13202;SDS011;6666;51.626;7.530;2023-06-04T01:22:40;2.10;;;1.20;;
13202;SDS011;6666;51.626;7.530;2023-06-04T01:25:12;2.30;;;1.13;;
13202;SDS011;6666;51.626;7.530;2023-06-04T01:27:48;2.10;;;1.30;;
13202;SDS011;6666;51.626;7.530;2023-06-04T01:30:19;2.80;;;1.60;;
13202;SDS011;6666;51.626;7.530;2023-06-04T01:32:51;1.80;;;1.20;;
13202;SDS011;6666;51.626;7.530;2023-06-04T01:35:21;2.30;;;1.20;;
13202;SDS011;6666;51.626;7.530;2023-06-04T01:41:18;1.92;;;1.38;;
13202;SDS011;6666;51.626;7.530;2023-06-04T01:43:46;3.10;;;1.38;;
13202;SDS011;6666;51.626;7.530;2023-06-04T01:46:14;2.80;;;1.40;;
13202;SDS011;6666;51.626;7.530;2023-06-04T01:48:44;2.73;;;1.30;;
13202;SDS011;6666;51.626;7.530;2023-06-04T01:51:15;3.95;;;1.42;;
13202;SDS011;6666;51.626;7.530;2023-06-04T01:53:43;6.00;;;1.65;;
13202;SDS011;6666;51.626;7.530;2023-06-04T01:56:12;4.50;;;1.30;;
13202;SDS011;6666;51.626;7.530;2023-06-04T01:58:42;2.90;;;1.50;;
13202;SDS011;6666;51.626;7.530;2023-06-04T02:01:10;2.50;;;1.25;;
13202;SDS011;6666;51.626;7.530;2023-06-04T02:03:38;2.30;;;1.53;;
13202;SDS011;6666;51.626;7.530;2023-06-04T02:06:08;2.50;;;1.40;;
13202;SDS011;6666;51.626;7.530;2023-06-04T02:08:37;2.60;;;1.40;;
13202;SDS011;6666;51.626;7.530;2023-06-04T02:11:07;2.80;;;1.63;;
13202;SDS011;6666;51.626;7.530;2023-06-04T02:13:35;2.33;;;1.60;;
13202;SDS011;6666;51.626;7.530;2023-06-04T02:16:04;2.70;;;1.30;;
13202;SDS011;6666;51.626;7.530;2023-06-04T02:18:32;2.92;;;1.30;;
13202;SDS011;6666;51.626;7.530;2023-06-04T02:21:02;2.17;;;1.35;;
13202;SDS011;6666;51.626;7.530;2023-06-04T02:23:32;1.90;;;1.30;;
13202;SDS011;6666;51.626;7.530;2023-06-04T02:26:00;3.40;;;1.60;;
13202;SDS011;6666;51.626;7.530;2023-06-04T02:28:28;2.50;;;1.70;;
13202;SDS011;6666;51.626;7.530;2023-06-04T02:30:57;1.73;;;1.30;;
13202;SDS011;6666;51.626;7.530;2023-06-04T02:33:25;2.90;;;1.60;;
13202;SDS011;6666;51.626;7.530;2023-06-04T02:35:53;2.90;;;1.40;;
13202;SDS011;6666;51.626;7.530;2023-06-04T02:38:22;3.07;;;1.60;;
13202;SDS011;6666;51.626;7.530;2023-06-04T02:40:51;2.70;;;1.80;;
13202;SDS011;6666;51.626;7.530;2023-06-04T02:43:20;1.77;;;1.45;;
13202;SDS011;6666;51.626;7.530;2023-06-04T02:45:48;3.47;;;1.70;;
13202;SDS011;6666;51.626;7.530;2023-06-04T02:48:16;2.80;;;1.50;;
13202;SDS011;6666;51.626;7.530;2023-06-04T02:50:44;1.70;;;1.45;;
13202;SDS011;6666;51.626;7.530;2023-06-04T02:53:13;5.03;;;1.77;;
13202;SDS011;6666;51.626;7.530;2023-06-04T02:55:41;4.60;;;2.20;;
13202;SDS011;6666;51.626;7.530;2023-06-04T02:58:10;4.63;;;1.70;;
13202;SDS011;6666;51.626;7.530;2023-06-04T03:00:40;5.63;;;2.00;;
13202;SDS011;6666;51.626;7.530;2023-06-04T03:03:08;6.75;;;1.83;;
13202;SDS011;6666;51.626;7.530;2023-06-04T03:05:37;3.03;;;1.60;;
13202;SDS011;6666;51.626;7.530;2023-06-04T03:08:06;2.42;;;1.70;;
13202;SDS011;6666;51.626;7.530;2023-06-04T03:10:34;3.20;;;1.50;;
13202;SDS011;6666;51.626;7.530;2023-06-04T03:13:02;5.00;;;1.47;;
13202;SDS011;6666;51.626;7.530;2023-06-04T03:15:32;3.78;;;1.90;;
13202;SDS011;6666;51.626;7.530;2023-06-04T03:18:00;2.55;;;1.70;;
13202;SDS011;6666;51.626;7.530;2023-06-04T03:20:29;4.25;;;1.52;;
13202;SDS011;6666;51.626;7.530;2023-06-04T03:23:01;2.13;;;1.77;;
13202;SDS011;6666;51.626;7.530;2023-06-04T03:25:29;3.20;;;1.80;;
13202;SDS011;6666;51.626;7.530;2023-06-04T03:27:58;2.40;;;1.60;;
13202;SDS011;6666;51.626;7.530;2023-06-04T03:30:26;3.40;;;1.70;;
13202;SDS011;6666;51.626;7.530;2023-06-04T03:32:59;3.25;;;1.45;;
13202;SDS011;6666;51.626;7.530;2023-06-04T03:35:28;5.40;;;1.90;;
13202;SDS011;6666;51.626;7.530;2023-06-04T03:37:57;2.17;;;1.33;;
13202;SDS011;6666;51.626;7.530;2023-06-04T03:40:25;2.20;;;1.70;;
13202;SDS011;6666;51.626;7.530;2023-06-04T03:42:53;2.10;;;1.55;;
13202;SDS011;6666;51.626;7.530;2023-06-04T03:45:26;2.10;;;1.40;;
13202;SDS011;6666;51.626;7.530;2023-06-04T03:47:55;2.38;;;1.55;;
13202;SDS011;6666;51.626;7.530;2023-06-04T03:50:26;3.40;;;1.60;;
13202;SDS011;6666;51.626;7.530;2023-06-04T03:52:55;1.95;;;1.50;;
13202;SDS011;6666;51.626;7.530;2023-06-04T03:55:24;2.38;;;1.52;;
13202;SDS011;6666;51.626;7.530;2023-06-04T03:57:53;2.10;;;1.60;;
13202;SDS011;6666;51.626;7.530;2023-06-04T04:00:21;2.30;;;1.40;;
13202;SDS011;6666;51.626;7.530;2023-06-04T04:02:52;1.83;;;1.50;;
13202;SDS011;6666;51.626;7.530;2023-06-04T04:05:27;2.80;;;1.40;;
13202;SDS011;6666;51.626;7.530;2023-06-04T04:07:57;3.00;;;1.55;;
13202;SDS011;6666;51.626;7.530;2023-06-04T04:10:29;3.40;;;1.50;;
13202;SDS011;6666;51.626;7.530;2023-06-04T04:12:57;3.78;;;1.70;;
13202;SDS011;6666;51.626;7.530;2023-06-04T04:15:29;3.67;;;1.70;;
13202;SDS011;6666;51.626;7.530;2023-06-04T04:17:59;2.65;;;1.60;;
13202;SDS011;6666;51.626;7.530;2023-06-04T04:20:29;3.60;;;1.60;;
13202;SDS011;6666;51.626;7.530;2023-06-04T04:23:03;2.97;;;1.60;;
13202;SDS011;6666;51.626;7.530;2023-06-04T04:25:34;3.95;;;1.88;;
13202;SDS011;6666;51.626;7.530;2023-06-04T04:28:04;2.13;;;1.55;;
13202;SDS011;6666;51.626;7.530;2023-06-04T04:30:35;1.80;;;1.60;;
13202;SDS011;6666;51.626;7.530;2023-06-04T04:33:05;2.65;;;1.73;;
13202;SDS011;6666;51.626;7.530;2023-06-04T04:35:44;2.60;;;1.50;;
13202;SDS011;6666;51.626;7.530;2023-06-04T04:38:16;1.85;;;1.45;;
13202;SDS011;6666;51.626;7.530;2023-06-04T04:40:51;2.10;;;1.60;;
13202;SDS011;6666;51.626;7.530;2023-06-04T04:43:29;1.70;;;1.42;;
13202;SDS011;6666;51.626;7.530;2023-06-04T04:46:05;3.75;;;1.80;;
13202;SDS011;6666;51.626;7.530;2023-06-04T04:48:34;2.25;;;1.40;;
13202;SDS011;6666;51.626;7.530;2023-06-04T04:51:06;3.17;;;1.50;;
13202;SDS011;6666;51.626;7.530;2023-06-04T04:53:36;2.92;;;1.40;;
13202;SDS011;6666;51.626;7.530;2023-06-04T04:56:04;2.20;;;1.40;;
13202;SDS011;6666;51.626;7.530;2023-06-04T04:58:37;2.95;;;1.70;;
13202;SDS011;6666;51.626;7.530;2023-06-04T05:01:05;2.75;;;1.50;;
13202;SDS011;6666;51.626;7.530;2023-06-04T05:03:35;4.22;;;1.70;;
13202;SDS011;6666;51.626;7.530;2023-06-04T05:06:05;2.50;;;1.40;;
13202;SDS011;6666;51.626;7.530;2023-06-04T05:08:34;6.95;;;1.70;;
13202;SDS011;6666;51.626;7.530;2023-06-04T05:11:02;3.65;;;1.50;;
13202;SDS011;6666;51.626;7.530;2023-06-04T05:13:31;2.40;;;1.50;;
13202;SDS011;6666;51.626;7.530;2023-06-04T05:16:02;1.70;;;1.60;;
13202;SDS011;6666;51.626;7.530;2023-06-04T05:18:36;1.60;;;1.33;;
13202;SDS011;6666;51.626;7.530;2023-06-04T05:21:11;1.53;;;1.43;;
13202;SDS011;6666;51.626;7.530;2023-06-04T05:23:45;4.70;;;1.40;;
13202;SDS011;6666;51.626;7.530;2023-06-04T05:26:16;2.47;;;1.60;;
13202;SDS011;6666;51.626;7.530;2023-06-04T05:28:49;2.30;;;1.70;;
13202;SDS011;6666;51.626;7.530;2023-06-04T05:31:18;2.30;;;1.52;;
13202;SDS011;6666;51.626;7.530;2023-06-04T05:33:48;3.42;;;1.63;;
13202;SDS011;6666;51.626;7.530;2023-06-04T05:36:21;2.10;;;1.50;;
13202;SDS011;6666;51.626;7.530;2023-06-04T05:38:54;1.90;;;1.30;;
13202;SDS011;6666;51.626;7.530;2023-06-04T05:41:28;2.30;;;1.60;;
13202;SDS011;6666;51.626;7.530;2023-06-04T05:43:57;4.43;;;1.52;;
13202;SDS011;6666;51.626;7.530;2023-06-04T05:46:26;4.40;;;1.75;;
13202;SDS011;6666;51.626;7.530;2023-06-04T05:48:54;2.60;;;1.50;;
13202;SDS011;6666;51.626;7.530;2023-06-04T05:51:25;2.67;;;1.50;;
13202;SDS011;6666;51.626;7.530;2023-06-04T05:53:53;2.70;;;1.50;;
13202;SDS011;6666;51.626;7.530;2023-06-04T05:56:22;2.30;;;1.52;;
13202;SDS011;6666;51.626;7.530;2023-06-04T05:58:51;2.00;;;1.45;;
13202;SDS011;6666;51.626;7.530;2023-06-04T06:01:21;2.50;;;1.70;;
13202;SDS011;6666;51.626;7.530;2023-06-04T06:03:51;2.30;;;1.60;;
13202;SDS011;6666;51.626;7.530;2023-06-04T06:06:21;3.80;;;1.80;;
13202;SDS011;6666;51.626;7.530;2023-06-04T06:08:51;2.45;;;1.50;;
13202;SDS011;6666;51.626;7.530;2023-06-04T06:11:19;3.50;;;1.75;;
13202;SDS011;6666;51.626;7.530;2023-06-04T06:13:48;3.80;;;1.90;;
13202;SDS011;6666;51.626;7.530;2023-06-04T06:16:16;2.33;;;1.70;;
13202;SDS011;6666;51.626;7.530;2023-06-04T06:18:46;2.30;;;1.60;;
13202;SDS011;6666;51.626;7.530;2023-06-04T06:21:14;3.93;;;1.60;;
13202;SDS011;6666;51.626;7.530;2023-06-04T06:23:42;7.63;;;2.80;;
13202;SDS011;6666;51.626;7.530;2023-06-04T06:26:12;1.87;;;1.67;;
13202;SDS011;6666;51.626;7.530;2023-06-04T06:28:46;4.07;;;2.90;;
13202;SDS011;6666;51.626;7.530;2023-06-04T06:31:15;3.25;;;1.80;;
13202;SDS011;6666;51.626;7.530;2023-06-04T06:33:43;5.55;;;2.28;;
13202;SDS011;6666;51.626;7.530;2023-06-04T06:36:11;4.28;;;1.77;;
13202;SDS011;6666;51.626;7.530;2023-06-04T06:38:40;2.80;;;1.60;;
13202;SDS011;6666;51.626;7.530;2023-06-04T06:41:08;3.00;;;1.90;;
13202;SDS011;6666;51.626;7.530;2023-06-04T06:43:37;2.28;;;2.00;;
13202;SDS011;6666;51.626;7.530;2023-06-04T06:46:07;3.30;;;1.77;;
13202;SDS011;6666;51.626;7.530;2023-06-04T06:48:51;4.22;;;1.50;;
13202;SDS011;6666;51.626;7.530;2023-06-04T06:51:20;2.20;;;1.73;;
13202;SDS011;6666;51.626;7.530;2023-06-04T06:53:48;2.03;;;1.50;;
13202;SDS011;6666;51.626;7.530;2023-06-04T06:56:17;2.05;;;1.50;;
13202;SDS011;6666;51.626;7.530;2023-06-04T06:58:46;4.30;;;1.88;;
13202;SDS011;6666;51.626;7.530;2023-06-04T07:01:15;1.67;;;1.58;;
13202;SDS011;6666;51.626;7.530;2023-06-04T07:03:43;1.80;;;1.40;;
13202;SDS011;6666;51.626;7.530;2023-06-04T07:06:11;1.55;;;1.30;;
13202;SDS011;6666;51.626;7.530;2023-06-04T07:08:39;2.08;;;1.50;;
13202;SDS011;6666;51.626;7.530;2023-06-04T07:11:09;3.20;;;1.48;;
13202;SDS011;6666;51.626;7.530;2023-06-04T07:13:38;6.50;;;1.65;;
13202;SDS011;6666;51.626;7.530;2023-06-04T07:16:08;3.92;;;1.48;;
13202;SDS011;6666;51.626;7.530;2023-06-04T07:18:37;2.08;;;1.40;;
13202;SDS011;6666;51.626;7.530;2023-06-04T07:21:05;2.25;;;1.60;;
13202;SDS011;6666;51.626;7.530;2023-06-04T07:23:34;5.68;;;1.48;;
13202;SDS011;6666;51.626;7.530;2023-06-04T07:26:02;2.85;;;1.20;;
13202;SDS011;6666;51.626;7.530;2023-06-04T07:28:30;3.25;;;1.20;;
13202;SDS011;6666;51.626;7.530;2023-06-04T07:31:00;1.70;;;1.23;;
13202;SDS011;6666;51.626;7.530;2023-06-04T07:33:30;3.30;;;1.50;;
13202;SDS011;6666;51.626;7.530;2023-06-04T07:35:58;2.30;;;1.50;;
13202;SDS011;6666;51.626;7.530;2023-06-04T07:38:26;2.60;;;1.42;;
13202;SDS011;6666;51.626;7.530;2023-06-04T07:40:54;4.00;;;1.70;;
13202;SDS011;6666;51.626;7.530;2023-06-04T07:43:23;2.10;;;1.70;;
13202;SDS011;6666;51.626;7.530;2023-06-04T07:45:51;1.85;;;1.20;;
13202;SDS011;6666;51.626;7.530;2023-06-04T07:48:19;3.00;;;1.70;;
13202;SDS011;6666;51.626;7.530;2023-06-04T07:50:49;3.00;;;1.50;;
13202;SDS011;6666;51.626;7.530;2023-06-04T07:53:17;4.40;;;1.50;;
13202;SDS011;6666;51.626;7.530;2023-06-04T07:55:45;2.10;;;1.40;;
13202;SDS011;6666;51.626;7.530;2023-06-04T07:58:13;2.70;;;1.50;;
13202;SDS011;6666;51.626;7.530;2023-06-04T08:00:42;3.97;;;1.58;;
13202;SDS011;6666;51.626;7.530;2023-06-04T08:03:10;2.95;;;1.85;;
13202;SDS011;6666;51.626;7.530;2023-06-04T08:05:38;2.40;;;1.70;;
13202;SDS011;6666;51.626;7.530;2023-06-04T08:08:08;4.23;;;1.80;;
13202;SDS011;6666;51.626;7.530;2023-06-04T08:10:36;2.35;;;1.95;;
13202;SDS011;6666;51.626;7.530;2023-06-04T08:13:06;2.30;;;1.70;;
13202;SDS011;6666;51.626;7.530;2023-06-04T08:15:35;2.10;;;1.52;;
13202;SDS011;6666;51.626;7.530;2023-06-04T08:18:03;2.00;;;1.60;;
13202;SDS011;6666;51.626;7.530;2023-06-04T08:20:31;2.60;;;1.50;;
13202;SDS011;6666;51.626;7.530;2023-06-04T08:22:59;3.20;;;1.60;;
13202;SDS011;6666;51.626;7.530;2023-06-04T08:25:29;4.25;;;2.00;;
13202;SDS011;6666;51.626;7.530;2023-06-04T08:27:58;3.35;;;2.00;;
13202;SDS011;6666;51.626;7.530;2023-06-04T08:30:26;2.63;;;1.80;;
13202;SDS011;6666;51.626;7.530;2023-06-04T08:32:54;2.28;;;1.90;;
13202;SDS011;6666;51.626;7.530;2023-06-04T08:35:22;2.80;;;1.90;;
13202;SDS011;6666;51.626;7.530;2023-06-04T08:37:50;3.17;;;2.00;;
13202;SDS011;6666;51.626;7.530;2023-06-04T08:40:19;2.17;;;1.98;;
13202;SDS011;6666;51.626;7.530;2023-06-04T08:42:50;4.90;;;1.87;;
13202;SDS011;6666;51.626;7.530;2023-06-04T08:45:24;2.30;;;1.73;;
13202;SDS011;6666;51.626;7.530;2023-06-04T08:47:53;2.92;;;1.92;;
13202;SDS011;6666;51.626;7.530;2023-06-04T08:50:22;5.28;;;2.17;;
13202;SDS011;6666;51.626;7.530;2023-06-04T08:52:52;5.82;;;2.40;;
13202;SDS011;6666;51.626;7.530;2023-06-04T08:55:22;3.33;;;2.40;;
13202;SDS011;6666;51.626;7.530;2023-06-04T08:57:52;4.20;;;2.40;;
13202;SDS011;6666;51.626;7.530;2023-06-04T09:00:21;7.60;;;2.63;;
13202;SDS011;6666;51.626;7.530;2023-06-04T09:02:50;4.90;;;2.30;;
13202;SDS011;6666;51.626;7.530;2023-06-04T09:05:19;5.03;;;2.30;;
13202;SDS011;6666;51.626;7.530;2023-06-04T09:07:50;5.50;;;2.30;;
13202;SDS011;6666;51.626;7.530;2023-06-04T09:10:22;5.97;;;2.03;;
13202;SDS011;6666;51.626;7.530;2023-06-04T09:12:53;3.97;;;2.67;;
13202;SDS011;6666;51.626;7.530;2023-06-04T09:15:24;2.97;;;2.45;;
13202;SDS011;6666;51.626;7.530;2023-06-04T09:17:52;4.28;;;2.50;;
13202;SDS011;6666;51.626;7.530;2023-06-04T09:20:21;3.50;;;2.40;;
13202;SDS011;6666;51.626;7.530;2023-06-04T09:22:50;6.90;;;2.20;;
13202;SDS011;6666;51.626;7.530;2023-06-04T09:25:19;2.85;;;2.42;;
13202;SDS011;6666;51.626;7.530;2023-06-04T09:27:48;2.53;;;2.10;;
13202;SDS011;6666;51.626;7.530;2023-06-04T09:30:18;3.20;;;2.30;;
13202;SDS011;6666;51.626;7.530;2023-06-04T09:32:46;3.55;;;2.13;;
13202;SDS011;6666;51.626;7.530;2023-06-04T09:35:16;3.20;;;2.40;;
13202;SDS011;6666;51.626;7.530;2023-06-04T09:37:51;3.20;;;2.40;;
13202;SDS011;6666;51.626;7.530;2023-06-04T09:40:21;5.27;;;1.97;;
13202;SDS011;6666;51.626;7.530;2023-06-04T09:42:49;3.93;;;2.30;;
13202;SDS011;6666;51.626;7.530;2023-06-04T09:45:28;6.90;;;2.20;;
13202;SDS011;6666;51.626;7.530;2023-06-04T09:47:57;2.60;;;2.17;;
13202;SDS011;6666;51.626;7.530;2023-06-04T09:50:27;6.90;;;2.40;;
13202;SDS011;6666;51.626;7.530;2023-06-04T09:52:58;4.20;;;2.55;;
13202;SDS011;6666;51.626;7.530;2023-06-04T09:55:27;5.43;;;2.10;;
13202;SDS011;6666;51.626;7.530;2023-06-04T09:57:55;5.60;;;2.60;;
13202;SDS011;6666;51.626;7.530;2023-06-04T10:00:28;3.13;;;2.30;;
13202;SDS011;6666;51.626;7.530;2023-06-04T10:02:57;6.20;;;3.03;;
13202;SDS011;6666;51.626;7.530;2023-06-04T10:05:29;3.00;;;2.60;;
13202;SDS011;6666;51.626;7.530;2023-06-04T10:08:00;6.07;;;2.67;;
13202;SDS011;6666;51.626;7.530;2023-06-04T10:10:31;3.30;;;2.50;;
13202;SDS011;6666;51.626;7.530;2023-06-04T10:13:04;3.47;;;2.75;;
13202;SDS011;6666;51.626;7.530;2023-06-04T10:15:38;4.82;;;2.60;;
13202;SDS011;6666;51.626;7.530;2023-06-04T10:18:06;4.10;;;2.80;;
13202;SDS011;6666;51.626;7.530;2023-06-04T10:20:34;4.78;;;2.83;;
13202;SDS011;6666;51.626;7.530;2023-06-04T10:23:03;2.83;;;2.30;;
13202;SDS011;6666;51.626;7.530;2023-06-04T10:25:32;2.70;;;2.50;;
13202;SDS011;6666;51.626;7.530;2023-06-04T10:28:00;4.80;;;2.60;;
13202;SDS011;6666;51.626;7.530;2023-06-04T10:30:30;2.80;;;2.10;;
13202;SDS011;6666;51.626;7.530;2023-06-04T10:33:00;4.40;;;2.22;;
13202;SDS011;6666;51.626;7.530;2023-06-04T10:35:30;5.10;;;2.50;;
13202;SDS011;6666;51.626;7.530;2023-06-04T10:38:08;3.80;;;2.20;;
13202;SDS011;6666;51.626;7.530;2023-06-04T10:40:37;4.70;;;2.30;;
13202;SDS011;6666;51.626;7.530;2023-06-04T10:43:05;3.88;;;2.30;;
13202;SDS011;6666;51.626;7.530;2023-06-04T10:45:34;3.45;;;1.77;;
13202;SDS011;6666;51.626;7.530;2023-06-04T10:48:05;3.53;;;1.92;;
13202;SDS011;6666;51.626;7.530;2023-06-04T10:50:35;4.20;;;2.00;;
13202;SDS011;6666;51.626;7.530;2023-06-04T10:53:15;5.03;;;2.00;;
13202;SDS011;6666;51.626;7.530;2023-06-04T10:55:45;2.50;;;1.90;;
13202;SDS011;6666;51.626;7.530;2023-06-04T10:58:14;4.15;;;1.98;;
13202;SDS011;6666;51.626;7.530;2023-06-04T11:00:44;2.40;;;2.00;;
13202;SDS011;6666;51.626;7.530;2023-06-04T11:03:17;3.35;;;1.73;;
13202;SDS011;6666;51.626;7.530;2023-06-04T11:05:46;3.67;;;1.50;;
13202;SDS011;6666;51.626;7.530;2023-06-04T11:08:25;4.40;;;1.50;;
13202;SDS011;6666;51.626;7.530;2023-06-04T11:10:55;4.00;;;2.00;;
13202;SDS011;6666;51.626;7.530;2023-06-04T11:13:24;3.40;;;1.60;;
13202;SDS011;6666;51.626;7.530;2023-06-04T11:15:53;2.92;;;1.70;;
13202;SDS011;6666;51.626;7.530;2023-06-04T11:18:23;2.85;;;1.80;;
13202;SDS011;6666;51.626;7.530;2023-06-04T11:20:58;5.13;;;1.85;;
13202;SDS011;6666;51.626;7.530;2023-06-04T11:23:27;2.03;;;1.60;;
13202;SDS011;6666;51.626;7.530;2023-06-04T11:25:56;3.03;;;1.75;;
13202;SDS011;6666;51.626;7.530;2023-06-04T11:28:25;3.47;;;1.50;;
13202;SDS011;6666;51.626;7.530;2023-06-04T11:30:56;1.92;;;1.50;;
13202;SDS011;6666;51.626;7.530;2023-06-04T11:33:26;2.53;;;1.20;;
13202;SDS011;6666;51.626;7.530;2023-06-04T11:35:55;3.22;;;1.33;;
13202;SDS011;6666;51.626;7.530;2023-06-04T11:38:23;4.18;;;1.48;;
13202;SDS011;6666;51.626;7.530;2023-06-04T11:40:55;1.90;;;1.33;;
13202;SDS011;6666;51.626;7.530;2023-06-04T11:43:24;4.20;;;1.60;;
13202;SDS011;6666;51.626;7.530;2023-06-04T11:45:53;3.00;;;1.40;;
13202;SDS011;6666;51.626;7.530;2023-06-04T11:48:21;4.07;;;1.30;;
13202;SDS011;6666;51.626;7.530;2023-06-04T11:50:51;2.20;;;1.40;;
13202;SDS011;6666;51.626;7.530;2023-06-04T11:53:20;2.88;;;1.60;;
13202;SDS011;6666;51.626;7.530;2023-06-04T11:55:49;1.83;;;1.30;;
13202;SDS011;6666;51.626;7.530;2023-06-04T11:58:17;2.50;;;1.40;;
13202;SDS011;6666;51.626;7.530;2023-06-04T12:00:45;3.63;;;1.20;;
13202;SDS011;6666;51.626;7.530;2023-06-04T12:03:14;4.45;;;1.80;;
13202;SDS011;6666;51.626;7.530;2023-06-04T12:05:42;2.53;;;1.50;;
13202;SDS011;6666;51.626;7.530;2023-06-04T12:08:11;2.72;;;1.80;;
13202;SDS011;6666;51.626;7.530;2023-06-04T12:10:40;4.27;;;2.50;;
13202;SDS011;6666;51.626;7.530;2023-06-04T12:13:09;3.55;;;1.40;;
13202;SDS011;6666;51.626;7.530;2023-06-04T12:15:38;2.80;;;1.80;;
13202;SDS011;6666;51.626;7.530;2023-06-04T12:18:06;2.30;;;1.58;;
13202;SDS011;6666;51.626;7.530;2023-06-04T12:20:36;3.10;;;1.55;;
13202;SDS011;6666;51.626;7.530;2023-06-04T12:23:06;2.40;;;1.60;;
13202;SDS011;6666;51.626;7.530;2023-06-04T12:25:35;2.50;;;1.42;;
13202;SDS011;6666;51.626;7.530;2023-06-04T12:28:05;3.50;;;1.60;;
13202;SDS011;6666;51.626;7.530;2023-06-04T12:30:36;3.92;;;1.88;;
13202;SDS011;6666;51.626;7.530;2023-06-04T12:33:05;2.53;;;1.40;;
13202;SDS011;6666;51.626;7.530;2023-06-04T12:35:34;2.67;;;1.40;;
13202;SDS011;6666;51.626;7.530;2023-06-04T12:38:03;4.65;;;1.40;;
13202;SDS011;6666;51.626;7.530;2023-06-04T12:40:31;1.30;;;1.10;;
13202;SDS011;6666;51.626;7.530;2023-06-04T12:43:01;2.30;;;1.30;;
13202;SDS011;6666;51.626;7.530;2023-06-04T12:45:29;1.70;;;1.20;;
13202;SDS011;6666;51.626;7.530;2023-06-04T12:47:57;2.53;;;1.50;;
13202;SDS011;6666;51.626;7.530;2023-06-04T12:50:26;1.88;;;1.50;;
13202;SDS011;6666;51.626;7.530;2023-06-04T12:52:54;2.40;;;1.60;;
13202;SDS011;6666;51.626;7.530;2023-06-04T12:55:22;2.40;;;1.50;;
13202;SDS011;6666;51.626;7.530;2023-06-04T12:57:53;2.70;;;1.50;;
13202;SDS011;6666;51.626;7.530;2023-06-04T13:00:23;5.55;;;1.73;;
13202;SDS011;6666;51.626;7.530;2023-06-04T13:02:52;2.57;;;1.70;;
13202;SDS011;6666;51.626;7.530;2023-06-04T13:05:21;3.25;;;1.90;;
13202;SDS011;6666;51.626;7.530;2023-06-04T13:07:49;2.72;;;1.95;;
13202;SDS011;6666;51.626;7.530;2023-06-04T13:10:18;4.28;;;2.00;;
13202;SDS011;6666;51.626;7.530;2023-06-04T13:12:46;3.10;;;2.00;;
13202;SDS011;6666;51.626;7.530;2023-06-04T13:15:14;3.80;;;1.70;;
13202;SDS011;6666;51.626;7.530;2023-06-04T13:17:44;2.78;;;2.03;;
13202;SDS011;6666;51.626;7.530;2023-06-04T13:20:12;5.28;;;2.00;;
13202;SDS011;6666;51.626;7.530;2023-06-04T13:22:40;4.03;;;1.88;;
13202;SDS011;6666;51.626;7.530;2023-06-04T13:25:10;3.10;;;2.00;;
13202;SDS011;6666;51.626;7.530;2023-06-04T13:27:38;3.28;;;1.90;;
13202;SDS011;6666;51.626;7.530;2023-06-04T13:30:08;2.67;;;1.80;;
13202;SDS011;6666;51.626;7.530;2023-06-04T13:32:36;2.38;;;2.10;;
13202;SDS011;6666;51.626;7.530;2023-06-04T13:35:07;2.33;;;1.80;;
13202;SDS011;6666;51.626;7.530;2023-06-04T13:37:35;3.40;;;1.90;;
13202;SDS011;6666;51.626;7.530;2023-06-04T13:40:04;3.17;;;2.10;;
13202;SDS011;6666;51.626;7.530;2023-06-04T13:42:33;4.38;;;2.60;;
13202;SDS011;6666;51.626;7.530;2023-06-04T13:45:02;4.00;;;1.80;;
13202;SDS011;6666;51.626;7.530;2023-06-04T13:47:31;3.67;;;2.10;;
13202;SDS011;6666;51.626;7.530;2023-06-04T13:49:59;3.08;;;1.80;;
13202;SDS011;6666;51.626;7.530;2023-06-04T13:52:29;2.60;;;1.90;;
13202;SDS011;6666;51.626;7.530;2023-06-04T13:54:57;4.10;;;2.30;;
13202;SDS011;6666;51.626;7.530;2023-06-04T13:57:26;3.40;;;1.67;;
13202;SDS011;6666;51.626;7.530;2023-06-04T13:59:55;2.63;;;1.70;;
13202;SDS011;6666;51.626;7.530;2023-06-04T14:02:23;2.85;;;1.88;;
13202;SDS011;6666;51.626;7.530;2023-06-04T14:04:52;2.33;;;1.95;;
13202;SDS011;6666;51.626;7.530;2023-06-04T14:07:21;2.20;;;1.90;;
13202;SDS011;6666;51.626;7.530;2023-06-04T14:09:51;3.17;;;1.90;;
13202;SDS011;6666;51.626;7.530;2023-06-04T14:12:21;3.00;;;1.80;;
13202;SDS011;6666;51.626;7.530;2023-06-04T14:14:49;1.97;;;1.63;;
13202;SDS011;6666;51.626;7.530;2023-06-04T14:17:18;3.58;;;1.73;;
13202;SDS011;6666;51.626;7.530;2023-06-04T14:19:46;2.30;;;1.80;;
13202;SDS011;6666;51.626;7.530;2023-06-04T14:22:15;3.17;;;1.80;;
13202;SDS011;6666;51.626;7.530;2023-06-04T14:24:43;2.80;;;1.30;;
13202;SDS011;6666;51.626;7.530;2023-06-04T14:27:13;5.32;;;2.10;;
13202;SDS011;6666;51.626;7.530;2023-06-04T14:29:41;3.63;;;1.77;;
13202;SDS011;6666;51.626;7.530;2023-06-04T14:32:09;2.80;;;1.73;;
13202;SDS011;6666;51.626;7.530;2023-06-04T14:34:37;3.58;;;1.85;;
13202;SDS011;6666;51.626;7.530;2023-06-04T14:37:06;2.83;;;2.00;;
13202;SDS011;6666;51.626;7.530;2023-06-04T14:39:34;9.20;;;1.80;;
13202;SDS011;6666;51.626;7.530;2023-06-04T14:42:02;2.20;;;1.80;;
13202;SDS011;6666;51.626;7.530;2023-06-04T14:44:33;3.55;;;1.80;;
13202;SDS011;6666;51.626;7.530;2023-06-04T14:47:01;14.38;;;1.60;;
13202;SDS011;6666;51.626;7.530;2023-06-04T14:49:29;4.20;;;1.90;;
13202;SDS011;6666;51.626;7.530;2023-06-04T14:51:58;2.85;;;1.80;;
13202;SDS011;6666;51.626;7.530;2023-06-04T14:54:26;4.47;;;2.10;;
13202;SDS011;6666;51.626;7.530;2023-06-04T14:56:56;3.92;;;1.73;;
13202;SDS011;6666;51.626;7.530;2023-06-04T14:59:27;4.68;;;1.77;;
13202;SDS011;6666;51.626;7.530;2023-06-04T15:01:57;3.25;;;1.48;;
13202;SDS011;6666;51.626;7.530;2023-06-04T15:04:25;2.42;;;1.77;;
13202;SDS011;6666;51.626;7.530;2023-06-04T15:06:53;2.97;;;1.50;;
13202;SDS011;6666;51.626;7.530;2023-06-04T15:09:21;3.20;;;1.60;;
13202;SDS011;6666;51.626;7.530;2023-06-04T15:11:50;4.20;;;1.50;;
13202;SDS011;6666;51.626;7.530;2023-06-04T15:14:18;2.40;;;1.20;;
13202;SDS011;6666;51.626;7.530;2023-06-04T15:16:46;1.87;;;1.50;;
13202;SDS011;6666;51.626;7.530;2023-06-04T15:19:16;1.80;;;1.33;;